532  
UXUS97 KREV 201337  
SRGREV  
 
SOARING FORECAST  
NATIONAL WEATHER SERVICE - RENO NV  
700 AM PDT FRI SEP 20 2019  
 
THIS SOARING FORECAST IS FOR THE EASTERN SIERRA AND WESTERN NEVADA  
WITH SPECIFIC INDICES FOR THE GREATER RENO AREA.  
 
THIS FORECAST IS PREPARED DAILY BY 700 AM AND IS NOT UPDATED.  
 
FOR CURRENT FLIGHT CONDITIONS...FORECASTS...AND ADVISORIES...ACCESS  
YOUR LOCAL BRIEFING OUTLET OR FLIGHT SERVICE STATION.  
 
*******************************************************************  
FORECASTED LOCAL INDICES FOR RENO: TODAY YESTERDAY  
FORECASTED MAX TEMP AT RENO (DEG F)..... 69 61  
FORECASTED TRIGGER TEMPERATURE (DEG F).. 54 52  
EXCEEDED YESTERDAY BY 955 AM PDT  
FORECASTED MAXIMUM ALTITUDE (FT MSL).... 14000 14200  
FORECASTED SOARING INDEX (FPM).......... 690 786  
FORECASTED K-INDEX.........VALID 18Z.... 12 31  
FORECASTED K-INDEX.........VALID 00Z.... 17 29  
FORECASTED LIFTED INDEX....VALID 18Z.... 7 1  
FORECASTED LIFTED INDEX....VALID 00Z.... 6 0  
 
AFTERNOON WINDS ALOFT FORECAST  
MSL (FT) WIND/TEMP  
9000 9900/+05  
10000 9905/+02  
12000 3115/-02  
14000 3118/-05  
16000 3122/-08  
18000 3232/-12  
24000 3243/-23  
30000 3254/-41  
34000 3252/-50  
39000 3148/-56  
 
SLIDE MOUNTAIN DATA:  
DATE TIME TEMP DEWPT RH WIND (MPH)  
(F) (F) | DIR SPEED GUST  
2019-09-20 05:50 28 26 89 | 055 13 15  
2019-09-20 05:30 28 26 90 | 045 10 14  
2019-09-20 05:20 28 27 93 | 052 13 15  
2019-09-20 05:00 28 27 96 | 047 12 16  
 
SIERRA CREST 8700 FT DATA:  
DATE TIME TEMP RH WIND  
DIR SPEED GUST  
 
RENO TAF FORECAST:  
KRNO 201129Z 2012/2112 VRB04KT P6SM FEW060 SCT180  
FM202300 04009KT P6SM SCT100  
FM210400 VRB04KT P6SM FEW080  
 
CARSON CITY TAF FORECAST:  
KCXP 201129Z 2012/2112 00000KT P6SM SCT050 SCT180  
FM202200 04010KT P6SM SCT100  
FM210400 VRB03KT P6SM FEW100  
 
OUTLOOK FOR THE RENO-CARSON CITY-MINDEN AREA:   
SATURDAY
 
SUNNY. HIGHS 71 TO 76. LIGHT WINDS BECOMING EAST  
AROUND 10 MPH IN THE AFTERNOON.  
 
SUNRISE AND SUNSET  
SEPTEMBER 20 2019.....SUNRISE 645 AM PDT SUNSET 700 PM PDT  
SEPTEMBER 21 2019.....SUNRISE 646 AM PDT SUNSET 658 PM PDT  
 
CLICK HERE TO GO TO PREVIOUS BULLETINS.

The Nexlab NV Page
The Nexlab CA Page Main Text Page